createdAt,value
2018-04-07T00:00:24.991Z,8.46
2018-04-07T00:01:24.946Z,8.37
2018-04-07T00:02:25.214Z,8.39
2018-04-07T00:03:25.048Z,8.47
2018-04-07T00:04:25.171Z,8.47
2018-04-07T00:05:25.721Z,8.52
2018-04-07T00:06:24.884Z,8.52
2018-04-07T00:07:25.405Z,8.50
2018-04-07T00:08:25.136Z,8.46
2018-04-07T00:09:25.365Z,8.52
2018-04-07T00:10:24.694Z,8.57
2018-04-07T00:11:24.565Z,8.49
2018-04-07T00:12:24.586Z,8.60
2018-04-07T00:13:25.319Z,8.63
2018-04-07T00:14:24.565Z,8.58
2018-04-07T00:15:25.731Z,8.71
2018-04-07T00:16:26.538Z,8.71
2018-04-07T00:17:24.975Z,8.70
2018-04-07T00:18:25.929Z,8.61
2018-04-07T00:22:24.821Z,8.60
2018-04-07T00:23:24.899Z,8.58
2018-04-07T00:24:24.819Z,8.60
2018-04-07T00:25:23.900Z,8.78
2018-04-07T00:26:23.853Z,8.76
2018-04-07T00:27:23.810Z,8.76
2018-04-07T00:28:23.776Z,8.76
2018-04-07T00:29:23.736Z,8.68
2018-04-07T00:32:50.422Z,8.68
2018-04-07T00:33:50.336Z,8.68
2018-04-07T00:34:50.294Z,8.68
2018-04-07T00:35:50.242Z,8.68
2018-04-07T00:36:50.216Z,8.54
2018-04-07T00:37:50.154Z,8.60
2018-04-07T00:38:50.412Z,8.58
2018-04-07T00:39:50.088Z,8.60
2018-04-07T00:40:50.033Z,8.63
2018-04-07T00:41:49.990Z,8.54
2018-04-07T00:42:49.948Z,8.55
2018-04-07T00:43:49.903Z,8.71
2018-04-07T00:44:50.158Z,8.65
2018-04-07T00:45:49.836Z,8.61
2018-04-07T00:46:49.772Z,8.46
2018-04-07T00:47:49.730Z,8.61
2018-04-07T00:48:49.684Z,8.65
2018-04-07T00:49:49.647Z,8.65
2018-04-07T00:50:49.900Z,8.60
2018-04-07T00:51:49.559Z,8.63
2018-04-07T00:52:49.509Z,8.54
2018-04-07T00:53:49.468Z,8.55
2018-04-07T00:54:49.422Z,8.46
2018-04-07T00:55:49.371Z,8.47
2018-04-07T00:56:49.624Z,8.42
2018-04-07T00:57:49.291Z,8.43
2018-04-07T00:58:49.240Z,8.36
2018-04-07T00:59:49.194Z,8.40
2018-04-07T01:00:49.149Z,8.43
2018-04-07T01:01:49.106Z,8.46
2018-04-07T01:02:49.062Z,8.40
2018-04-07T01:03:49.330Z,8.40
2018-04-07T01:04:48.985Z,8.45
2018-04-07T01:05:48.942Z,8.37
2018-04-07T01:06:48.898Z,8.28
2018-04-07T01:07:48.860Z,8.24
2018-04-07T01:08:48.810Z,8.24
2018-04-07T01:09:48.768Z,8.28
2018-04-07T01:10:49.028Z,8.18
2018-04-07T01:11:48.670Z,8.22
2018-04-07T01:12:48.625Z,8.18
2018-04-07T01:13:48.583Z,8.07
2018-04-07T01:14:48.542Z,8.17
2018-04-07T01:15:48.500Z,8.22
2018-04-07T01:16:48.452Z,8.20
2018-04-07T01:17:48.709Z,8.07
2018-04-07T01:18:48.367Z,8.06
2018-04-07T01:19:48.320Z,7.99
2018-04-07T01:20:48.276Z,7.85
2018-04-07T01:21:48.232Z,7.94
2018-04-07T01:22:48.187Z,7.91
2018-04-07T01:23:48.146Z,7.94
2018-04-07T01:24:48.400Z,7.89
2018-04-07T01:25:48.055Z,7.73
2018-04-07T01:26:48.012Z,7.67
2018-04-07T01:27:47.978Z,7.67
2018-04-07T01:28:47.935Z,7.67
2018-04-07T01:29:47.891Z,7.70
2018-04-07T01:30:47.850Z,7.81
2018-04-07T01:31:48.108Z,7.70
2018-04-07T01:32:47.758Z,7.70
2018-04-07T01:33:47.722Z,7.58
2018-04-07T01:34:47.675Z,7.50
2018-04-07T01:35:47.619Z,7.37
2018-04-07T01:36:47.574Z,7.42
2018-04-07T01:37:47.529Z,7.36
2018-04-07T01:38:47.786Z,7.45
2018-04-07T01:39:47.441Z,7.39
2018-04-07T01:40:47.398Z,7.34
2018-04-07T01:41:47.360Z,7.26
2018-04-07T01:42:47.311Z,7.14
2018-04-07T01:43:47.282Z,7.15
2018-04-07T01:44:47.546Z,7.08
2018-04-07T01:45:47.191Z,7.04
2018-04-07T01:46:47.147Z,7.09
2018-04-07T01:47:47.106Z,7.07
2018-04-07T01:48:47.054Z,7.08
2018-04-07T01:49:47.013Z,7.07
2018-04-07T01:50:47.268Z,7.01
2018-04-07T01:51:46.924Z,7.08
2018-04-07T01:52:46.884Z,6.96
2018-04-07T01:53:47.085Z,6.93
2018-04-07T01:57:46.716Z,7.07
2018-04-07T01:58:46.924Z,7.09
2018-04-07T01:59:46.579Z,7.07
2018-04-07T02:00:46.538Z,7.26
2018-04-07T02:01:46.491Z,7.23
2018-04-07T02:02:46.437Z,7.26
2018-04-07T02:03:46.444Z,7.21
2018-04-07T02:04:46.648Z,7.12
2018-04-07T02:05:46.304Z,7.19
2018-04-07T02:06:46.260Z,7.08
2018-04-07T02:07:46.221Z,7.08
2018-04-07T02:08:46.170Z,6.97
2018-04-07T02:09:46.131Z,6.91
2018-04-07T02:10:46.393Z,6.94
2018-04-07T02:11:46.058Z,7.05
2018-04-07T02:12:46.003Z,7.14
2018-04-07T02:13:45.974Z,7.15
2018-04-07T02:14:45.917Z,7.23
2018-04-07T02:15:45.874Z,7.14
2018-04-07T02:16:45.827Z,7.18
2018-04-07T02:17:46.087Z,7.21
2018-04-07T02:18:45.729Z,7.27
2018-04-07T02:19:45.685Z,7.23
2018-04-07T02:20:45.644Z,7.19
2018-04-07T02:21:45.595Z,7.18
2018-04-07T02:22:45.552Z,7.12
2018-04-07T02:23:45.507Z,7.12
2018-04-07T02:24:45.762Z,7.14
2018-04-07T02:25:45.417Z,7.14
2018-04-07T02:26:45.375Z,7.30
2018-04-07T02:27:45.329Z,7.18
2018-04-07T02:28:45.285Z,7.33
2018-04-07T02:29:45.244Z,7.24
2018-04-07T02:30:45.197Z,7.19
2018-04-07T02:31:45.454Z,7.19
2018-04-07T02:32:45.149Z,7.23
2018-04-07T02:33:45.072Z,7.19
2018-04-07T02:34:45.030Z,7.24
2018-04-07T02:35:45.001Z,7.32
2018-04-07T02:36:44.941Z,7.37
2018-04-07T02:37:44.896Z,7.39
2018-04-07T02:38:45.153Z,7.47
2018-04-07T02:39:44.809Z,7.36
2018-04-07T02:40:44.764Z,7.33
2018-04-07T02:41:44.719Z,7.39
2018-04-07T02:42:44.672Z,7.58
2018-04-07T02:43:44.629Z,7.51
2018-04-07T02:44:44.578Z,7.45
2018-04-07T02:45:44.841Z,7.55
2018-04-07T02:46:44.491Z,7.52
2018-04-07T02:47:44.447Z,7.54
2018-04-07T02:48:44.402Z,7.51
2018-04-07T02:49:44.569Z,7.51
2018-04-07T02:50:44.323Z,7.57
2018-04-07T02:51:44.577Z,7.54
2018-04-07T02:52:44.232Z,7.39
2018-04-07T02:53:44.188Z,7.37
2018-04-07T02:54:44.149Z,7.37
2018-04-07T02:55:44.102Z,7.42
2018-04-07T02:56:44.072Z,7.39
2018-04-07T02:57:44.326Z,7.41
2018-04-07T02:58:43.970Z,7.30
2018-04-07T02:59:43.927Z,7.44
2018-04-07T03:00:43.878Z,7.36
2018-04-07T03:01:43.838Z,7.36
2018-04-07T03:02:43.793Z,7.39
2018-04-07T03:03:44.095Z,7.36
2018-04-07T03:04:43.701Z,7.26
2018-04-07T03:05:43.658Z,7.34
2018-04-07T03:06:43.605Z,7.33
2018-04-07T03:07:43.560Z,7.30
2018-04-07T03:08:43.511Z,7.24
2018-04-07T03:09:43.770Z,7.14
2018-04-07T03:10:43.426Z,7.27
2018-04-07T03:11:43.381Z,7.36
2018-04-07T03:12:43.338Z,7.36
2018-04-07T03:13:43.294Z,7.34
2018-04-07T03:14:43.257Z,7.26
2018-04-07T03:15:43.514Z,7.16
2018-04-07T03:16:43.180Z,7.15
2018-04-07T03:17:43.175Z,7.16
2018-04-07T03:18:43.080Z,7.16
2018-04-07T03:19:43.037Z,7.09
2018-04-07T03:20:42.994Z,7.15
2018-04-07T03:21:43.247Z,7.12
2018-04-07T03:22:42.894Z,7.08
2018-04-07T03:23:42.851Z,7.15
2018-04-07T03:24:42.804Z,7.11
2018-04-07T03:25:42.759Z,7.11
2018-04-07T03:26:42.727Z,7.18
2018-04-07T03:27:42.671Z,7.19
2018-04-07T03:28:42.926Z,7.16
2018-04-07T03:29:42.585Z,7.23
2018-04-07T03:30:42.790Z,7.12
2018-04-07T03:31:42.494Z,7.15
2018-04-07T03:32:42.449Z,7.15
2018-04-07T03:33:42.405Z,7.27
2018-04-07T03:34:42.359Z,7.24
2018-04-07T03:35:42.619Z,7.23
2018-04-07T03:36:42.325Z,7.23
2018-04-07T03:37:42.230Z,7.21
2018-04-07T03:38:42.198Z,7.21
2018-04-07T03:39:42.152Z,7.26
2018-04-07T03:40:42.114Z,7.18
2018-04-07T03:41:42.066Z,7.18
2018-04-07T03:42:42.367Z,7.12
2018-04-07T03:43:41.974Z,7.16
2018-04-07T03:44:41.926Z,7.21
2018-04-07T03:45:41.881Z,7.21
2018-04-07T03:46:41.832Z,7.16
2018-04-07T03:47:41.790Z,7.26
2018-04-07T03:48:41.738Z,7.11
2018-04-07T03:49:41.993Z,7.11
2018-04-07T03:50:41.650Z,7.15
2018-04-07T03:51:41.607Z,7.09
2018-04-07T03:52:41.560Z,7.15
2018-04-07T03:53:41.522Z,7.18
2018-04-07T03:54:41.492Z,7.19
2018-04-07T03:55:41.437Z,7.15
2018-04-07T03:56:41.693Z,7.15
2018-04-07T03:57:41.349Z,7.19
2018-04-07T03:58:41.308Z,7.18
2018-04-07T03:59:41.261Z,7.12
2018-04-07T04:00:41.219Z,7.15
2018-04-07T04:01:41.171Z,7.08
2018-04-07T04:02:41.427Z,7.01
2018-04-07T04:03:41.083Z,7.08
2018-04-07T04:04:41.038Z,7.08
2018-04-07T04:05:40.994Z,7.07
2018-04-07T04:06:40.957Z,7.11
2018-04-07T04:07:40.910Z,7.05
2018-04-07T04:08:41.209Z,6.97
2018-04-07T04:09:40.815Z,6.99
2018-04-07T04:10:40.762Z,7.07
2018-04-07T04:11:40.719Z,7.05
2018-04-07T04:12:40.672Z,7.05
2018-04-07T04:13:40.640Z,7.12
2018-04-07T04:14:41.084Z,7.01
2018-04-07T04:15:40.538Z,7.04
2018-04-07T04:16:40.496Z,7.15
2018-04-07T04:17:40.450Z,7.05
2018-04-07T04:18:40.416Z,7.08
2018-04-07T04:19:40.370Z,7.07
2018-04-07T04:20:40.630Z,7.07
2018-04-07T04:21:40.332Z,7.08
2018-04-07T04:22:40.237Z,7.09
2018-04-07T04:23:40.198Z,7.07
2018-04-07T04:24:40.151Z,7.05
2018-04-07T04:25:40.118Z,6.96
2018-04-07T04:26:40.348Z,6.94
2018-04-07T04:27:40.005Z,6.87
2018-04-07T04:28:39.959Z,6.87
2018-04-07T04:29:39.916Z,6.97
2018-04-07T04:30:40.132Z,7.08
2018-04-07T04:31:39.826Z,6.97
2018-04-07T04:32:40.086Z,6.97
2018-04-07T04:33:39.743Z,6.82
2018-04-07T04:34:39.694Z,6.94
2018-04-07T04:35:39.647Z,6.86
2018-04-07T04:36:39.603Z,6.89
2018-04-07T04:37:39.559Z,6.82
2018-04-07T04:38:39.515Z,6.90
2018-04-07T04:39:39.769Z,6.87
2018-04-07T04:40:39.423Z,6.86
2018-04-07T04:41:39.381Z,6.94
2018-04-07T04:42:39.395Z,6.86
2018-04-07T04:43:39.301Z,6.91
2018-04-07T04:44:39.258Z,6.90
2018-04-07T04:45:39.212Z,6.81
2018-04-07T04:46:39.472Z,6.86
2018-04-07T04:47:39.125Z,6.87
2018-04-07T04:48:39.077Z,6.87
2018-04-07T04:49:39.032Z,6.82
2018-04-07T04:50:38.981Z,6.87
2018-04-07T04:51:38.933Z,6.76
2018-04-07T04:52:38.892Z,6.69
2018-04-07T04:53:39.145Z,6.55
2018-04-07T04:54:38.804Z,6.72
2018-04-07T04:55:38.757Z,6.68
2018-04-07T04:56:38.712Z,6.63
2018-04-07T04:57:38.666Z,6.71
2018-04-07T04:58:38.633Z,6.69
2018-04-07T04:59:38.589Z,6.65
2018-04-07T05:00:38.842Z,6.69
2018-04-07T05:01:38.504Z,6.78
2018-04-07T05:02:38.453Z,6.78
2018-04-07T05:03:38.411Z,6.87
2018-04-07T05:04:38.377Z,6.83
2018-04-07T05:05:38.319Z,6.86
2018-04-07T05:06:38.275Z,6.79
2018-04-07T05:07:38.530Z,6.79
2018-04-07T05:08:38.185Z,6.89
2018-04-07T05:09:38.140Z,6.83
2018-04-07T05:10:38.096Z,6.89
2018-04-07T05:11:38.059Z,6.93
2018-04-07T05:12:38.009Z,6.83
2018-04-07T05:13:38.263Z,6.82
2018-04-07T05:14:37.908Z,6.89
2018-04-07T05:15:37.870Z,6.97
2018-04-07T05:16:37.822Z,7.00
2018-04-07T05:17:37.774Z,6.96
2018-04-07T05:18:37.736Z,7.08
2018-04-07T05:19:37.986Z,7.04
2018-04-07T05:20:37.640Z,7.11
2018-04-07T05:21:37.647Z,7.09
2018-04-07T05:22:37.563Z,7.11
2018-04-07T05:23:37.518Z,7.04
2018-04-07T05:24:37.480Z,7.07
2018-04-07T05:25:37.729Z,7.15
2018-04-07T05:26:37.386Z,7.21
2018-04-07T05:27:37.341Z,7.23
2018-04-07T05:28:37.299Z,7.14
2018-04-07T05:29:37.716Z,7.16
2018-04-07T05:30:37.688Z,7.21
2018-04-07T05:31:37.520Z,7.16
2018-04-07T05:32:37.240Z,7.23
2018-04-07T05:33:37.063Z,7.26
2018-04-07T05:34:37.020Z,7.33
2018-04-07T05:35:36.975Z,7.39
2018-04-07T05:36:36.931Z,7.41
2018-04-07T05:37:37.190Z,7.37
2018-04-07T05:38:36.846Z,7.36
2018-04-07T05:39:36.799Z,7.44
2018-04-07T05:40:36.754Z,7.55
2018-04-07T05:41:36.717Z,7.69
2018-04-07T05:42:36.667Z,7.70
2018-04-07T05:43:36.935Z,7.82
2018-04-07T05:44:36.584Z,7.76
2018-04-07T05:45:36.533Z,7.81
2018-04-07T05:46:36.508Z,7.89
2018-04-07T05:47:36.513Z,7.88
2018-04-07T05:48:36.416Z,7.81
2018-04-07T05:49:36.368Z,7.91
2018-04-07T05:50:36.624Z,7.96
2018-04-07T05:51:36.280Z,8.02
2018-04-07T05:52:36.239Z,8.03
2018-04-07T05:53:36.192Z,8.10
2018-04-07T05:54:36.137Z,8.07
2018-04-07T05:55:36.101Z,8.10
2018-04-07T05:56:36.050Z,8.22
2018-04-07T05:57:36.307Z,8.18
2018-04-07T05:58:35.968Z,8.24
2018-04-07T05:59:35.920Z,8.21
2018-04-07T06:00:35.884Z,8.37
2018-04-07T06:01:35.832Z,8.49
2018-04-07T06:02:35.807Z,8.45
2018-04-07T06:03:35.807Z,8.52
2018-04-07T06:04:36.053Z,8.55
2018-04-07T06:05:35.666Z,8.55
2018-04-07T06:06:35.624Z,8.57
2018-04-07T06:07:35.581Z,8.57
2018-04-07T06:08:35.538Z,8.65
2018-04-07T06:09:35.546Z,8.67
2018-04-07T06:10:35.450Z,8.76
2018-04-07T06:11:35.708Z,8.82
2018-04-07T06:12:35.362Z,9.17
2018-04-07T06:13:35.320Z,9.42
2018-04-07T06:14:35.278Z,9.75
2018-04-07T06:15:35.284Z,9.81
2018-04-07T06:16:35.199Z,9.93
2018-04-07T06:17:35.153Z,10.06
2018-04-07T06:18:35.402Z,9.96
2018-04-07T06:19:35.052Z,10.09
2018-04-07T06:20:35.010Z,10.25
2018-04-07T06:21:35.017Z,10.32
2018-04-07T06:22:34.936Z,10.58
2018-04-07T06:23:34.882Z,10.44
2018-04-07T06:24:35.140Z,10.68
2018-04-07T06:25:34.807Z,10.62
2018-04-07T06:26:34.767Z,10.76
2018-04-07T06:27:34.776Z,10.90
2018-04-07T06:28:34.686Z,10.80
2018-04-07T06:29:34.641Z,10.62
2018-04-07T06:30:34.904Z,10.75
2018-04-07T06:31:34.561Z,10.75
2018-04-07T06:32:34.519Z,10.46
2018-04-07T06:33:34.476Z,10.68
2018-04-07T06:34:34.426Z,10.80
2018-04-07T06:35:34.385Z,10.81
2018-04-07T06:36:34.643Z,10.62
2018-04-07T06:37:34.304Z,10.87
2018-04-07T06:38:34.262Z,10.72
2018-04-07T06:39:34.229Z,10.94
2018-04-07T06:40:34.180Z,11.28
2018-04-07T06:41:34.142Z,11.06
2018-04-07T06:42:34.452Z,11.39
2018-04-07T06:43:34.057Z,11.46
2018-04-07T06:44:34.019Z,11.60
2018-04-07T06:45:33.976Z,11.45
2018-04-07T06:46:33.936Z,11.51
2018-04-07T06:47:33.902Z,11.60
2018-04-07T06:48:34.159Z,11.87
2018-04-07T06:49:33.993Z,11.77
2018-04-07T06:50:34.369Z,11.90
2018-04-07T06:51:33.915Z,11.96
2018-04-07T06:53:33.716Z,11.98
2018-04-07T06:54:34.537Z,12.08
2018-04-07T06:55:33.585Z,12.08
2018-04-07T06:56:33.766Z,12.48
2018-04-07T06:57:33.690Z,12.43
2018-04-07T06:58:33.588Z,12.37
2018-04-07T06:59:33.599Z,12.59
2018-04-07T07:00:33.598Z,12.91
2018-04-07T07:02:33.507Z,12.94
2018-04-07T07:03:33.434Z,12.87
2018-04-07T07:04:33.375Z,13.03
2018-04-07T07:05:33.278Z,13.61
2018-04-07T07:06:33.143Z,14.08
2018-04-07T07:07:33.113Z,14.61
2018-04-07T07:08:33.373Z,13.91
2018-04-07T07:09:33.035Z,14.30
2018-04-07T07:10:33.004Z,14.36
2018-04-07T07:11:32.964Z,14.44
2018-04-07T07:12:32.922Z,14.44
2018-04-07T07:13:32.886Z,14.19
2018-04-07T07:14:32.847Z,14.48
2018-04-07T07:15:33.209Z,14.01
2018-04-07T07:16:32.824Z,14.49
2018-04-07T07:17:32.734Z,14.45
2018-04-07T07:18:32.748Z,14.35
2018-04-07T07:19:32.669Z,14.46
2018-04-07T07:20:32.824Z,14.17
2018-04-07T07:21:32.589Z,14.46
2018-04-07T07:22:32.850Z,14.52
2018-04-07T07:23:32.514Z,15.19
2018-04-07T07:24:32.473Z,14.90
2018-04-07T07:25:32.482Z,14.60
2018-04-07T07:26:32.396Z,15.01
2018-04-07T07:27:32.369Z,15.62
2018-04-07T07:28:32.387Z,15.96
2018-04-07T07:29:32.611Z,15.89
2018-04-07T07:30:32.504Z,15.44
2018-04-07T07:31:32.266Z,15.58
2018-04-07T07:32:32.201Z,15.64
2018-04-07T07:33:32.203Z,16.41
2018-04-07T07:34:32.118Z,16.52
2018-04-07T07:35:32.135Z,16.17
2018-04-07T07:36:32.354Z,15.68
2018-04-07T07:37:32.013Z,15.43
2018-04-07T07:38:32.229Z,15.84
2018-04-07T07:39:31.944Z,15.71
2018-04-07T07:40:31.899Z,15.84
2018-04-07T07:41:31.863Z,16.01
2018-04-07T07:42:32.133Z,15.52
2018-04-07T07:43:31.845Z,15.27
2018-04-07T07:44:31.761Z,15.58
2018-04-07T07:45:31.926Z,15.18
2018-04-07T07:46:31.690Z,15.15
2018-04-07T07:47:31.658Z,15.48
2018-04-07T07:48:33.951Z,16.01
2018-04-07T07:49:32.803Z,16.16
2018-04-07T07:50:31.857Z,16.80
2018-04-07T07:51:31.859Z,15.98
2018-04-07T07:52:32.377Z,16.32
2018-04-07T07:53:31.653Z,16.33
2018-04-07T07:54:32.726Z,15.93
2018-04-07T07:55:32.216Z,15.92
2018-04-07T07:56:31.653Z,16.08
2018-04-07T07:57:32.660Z,16.14
2018-04-07T07:58:31.294Z,15.62
2018-04-07T07:59:31.313Z,16.16
2018-04-07T08:00:31.522Z,16.72
2018-04-07T08:01:31.243Z,16.81
2018-04-07T08:02:31.324Z,16.92
2018-04-07T08:03:31.119Z,17.63
2018-04-07T08:04:31.126Z,17.96
2018-04-07T08:05:31.044Z,18.75
2018-04-07T08:06:31.515Z,19.35
2018-04-07T08:07:31.026Z,19.05
2018-04-07T08:08:30.945Z,19.24
2018-04-07T08:09:31.110Z,18.74
2018-04-07T08:10:30.877Z,18.76
2018-04-07T08:11:30.896Z,18.82
2018-04-07T08:12:31.120Z,19.17
2018-04-07T08:13:30.789Z,18.39
2018-04-07T08:14:30.820Z,18.07
2018-04-07T08:15:30.780Z,18.47
2018-04-07T08:16:30.805Z,19.02
2018-04-07T08:17:30.855Z,19.39
2018-04-07T08:18:30.776Z,19.39
2018-04-07T08:19:30.901Z,19.64
2018-04-07T08:20:30.693Z,17.83
2018-04-07T08:21:30.922Z,17.66
2018-04-07T08:22:30.677Z,17.92
2018-04-07T08:23:31.065Z,17.51
2018-04-07T08:24:30.832Z,18.01
2018-04-07T08:25:30.574Z,18.09
2018-04-07T08:26:30.713Z,17.68
2018-04-07T08:27:30.448Z,17.81
2018-04-07T08:28:30.517Z,18.10
2018-04-07T08:29:30.406Z,18.14
2018-04-07T08:30:30.322Z,18.97
2018-04-07T08:31:30.557Z,19.65
2018-04-07T08:32:30.231Z,19.72
2018-04-07T08:33:30.491Z,19.71
2018-04-07T08:34:30.214Z,19.49
2018-04-07T08:35:30.210Z,19.25
2018-04-07T08:36:30.112Z,19.24
2018-04-07T08:37:30.152Z,19.24
2018-04-07T08:38:30.515Z,18.83
2018-04-07T08:39:30.114Z,18.79
2018-04-07T08:40:30.373Z,18.49
2018-04-07T08:41:30.111Z,18.57
2018-04-07T08:42:30.049Z,19.01
2018-04-07T08:43:29.923Z,19.12
2018-04-07T08:44:29.941Z,19.98
2018-04-07T08:45:29.855Z,19.28
2018-04-07T08:46:29.867Z,19.12
2018-04-07T08:47:30.205Z,19.79
2018-04-07T08:48:30.432Z,19.79
2018-04-07T08:49:29.777Z,19.98
2018-04-07T08:50:30.338Z,20.75
2018-04-07T08:51:29.742Z,20.93
2018-04-07T08:52:29.656Z,20.42
2018-04-07T08:53:29.644Z,19.50
2018-04-07T08:54:29.906Z,19.27
2018-04-07T08:55:29.615Z,19.97
2018-04-07T08:56:29.522Z,20.30
2018-04-07T08:57:29.683Z,20.40
2018-04-07T08:58:29.442Z,20.30
2018-04-07T08:59:29.473Z,20.98
2018-04-07T09:00:29.694Z,21.11
2018-04-07T09:01:29.780Z,21.05
2018-04-07T09:02:29.376Z,21.34
2018-04-07T09:03:29.337Z,20.72
2018-04-07T09:04:29.391Z,21.68
2018-04-07T09:05:29.313Z,21.51
2018-04-07T09:06:29.517Z,21.70
2018-04-07T09:07:29.193Z,21.13
2018-04-07T09:08:29.207Z,21.55
2018-04-07T09:09:29.105Z,22.86
2018-04-07T09:10:29.116Z,22.61
2018-04-07T09:11:29.031Z,20.82
2018-04-07T09:12:29.357Z,20.27
2018-04-07T09:13:29.041Z,20.83
2018-04-07T09:14:28.952Z,20.72
2018-04-07T09:15:28.973Z,21.61
2018-04-07T09:16:28.885Z,22.45
2018-04-07T09:17:28.908Z,21.77
2018-04-07T09:18:29.133Z,22.21
2018-04-07T09:19:28.826Z,21.55
2018-04-07T09:20:28.826Z,21.64
2018-04-07T09:21:28.751Z,21.89
2018-04-07T09:22:28.979Z,21.77
2018-04-07T09:23:28.748Z,21.28
2018-04-07T09:24:29.067Z,21.94
2018-04-07T09:25:28.695Z,22.09
2018-04-07T09:26:28.626Z,22.70
2018-04-07T09:27:28.638Z,21.68
2018-04-07T09:28:28.613Z,21.96
2018-04-07T09:29:28.536Z,22.61
2018-04-07T09:30:28.860Z,23.04
2018-04-07T09:31:28.488Z,22.79
2018-04-07T09:32:28.515Z,22.56
2018-04-07T09:33:28.491Z,22.46
2018-04-07T09:34:28.420Z,22.82
2018-04-07T09:35:28.538Z,23.19
2018-04-07T09:36:28.364Z,23.94
2018-04-07T09:37:28.691Z,23.09
2018-04-07T09:38:28.562Z,23.23
2018-04-07T09:39:28.291Z,23.97
2018-04-07T09:40:28.299Z,22.85
2018-04-07T09:41:28.234Z,23.64
2018-04-07T09:42:28.405Z,23.75
2018-04-07T09:43:28.224Z,23.89
2018-04-07T09:44:28.448Z,24.86
2018-04-07T09:45:28.178Z,24.48
2018-04-07T09:46:28.164Z,24.55
2018-04-07T09:47:28.129Z,23.18
2018-04-07T09:48:28.118Z,22.48
2018-04-07T09:49:28.043Z,23.68
2018-04-07T09:50:28.065Z,24.55
2018-04-07T09:51:28.287Z,25.49
2018-04-07T09:52:28.022Z,24.83
2018-04-07T09:53:28.201Z,24.75
2018-04-07T09:54:27.912Z,23.96
2018-04-07T09:55:27.940Z,24.67
2018-04-07T09:56:27.922Z,24.60
2018-04-07T09:57:27.890Z,24.19
2018-04-07T09:58:28.167Z,23.81
2018-04-07T09:59:27.797Z,23.53
2018-04-07T10:00:28.017Z,23.82
2018-04-07T10:01:27.796Z,23.86
2018-04-07T10:02:27.769Z,24.21
2018-04-07T10:03:27.745Z,24.16
2018-04-07T10:04:27.859Z,23.03
2018-04-07T10:05:28.237Z,23.06
2018-04-07T10:06:27.663Z,23.44
2018-04-07T10:07:27.590Z,22.85
2018-04-07T10:08:27.816Z,22.78
2018-04-07T10:09:27.590Z,23.71
2018-04-07T10:10:27.517Z,24.21
2018-04-07T10:11:27.542Z,24.48
2018-04-07T10:12:27.779Z,24.99
2018-04-07T10:13:27.504Z,24.21
2018-04-07T10:14:27.479Z,23.81
2018-04-07T10:15:27.405Z,24.08
2018-04-07T10:16:27.434Z,24.02
2018-04-07T10:17:27.359Z,25.26
2018-04-07T10:18:27.694Z,25.61
2018-04-07T10:19:27.361Z,25.61
2018-04-07T10:20:27.280Z,24.93
2018-04-07T10:21:27.305Z,24.41
2018-04-07T10:22:27.230Z,23.21
2018-04-07T10:23:27.465Z,23.34
2018-04-07T10:24:27.493Z,23.77
2018-04-07T10:25:27.158Z,24.34
2018-04-07T10:26:27.187Z,24.86
2018-04-07T10:27:27.115Z,25.19
2018-04-07T10:28:27.449Z,24.53
2018-04-07T10:29:27.316Z,25.20
2018-04-07T10:30:27.343Z,26.03
2018-04-07T10:31:27.269Z,26.72
2018-04-07T10:32:27.044Z,26.39
2018-04-07T10:33:27.024Z,25.90
2018-04-07T10:34:26.999Z,26.98
2018-04-07T10:35:26.924Z,26.86
2018-04-07T10:36:27.265Z,26.17
2018-04-07T10:37:26.974Z,26.93
2018-04-07T10:38:26.918Z,26.32
2018-04-07T10:39:26.894Z,26.69
2018-04-07T10:40:26.819Z,25.91
2018-04-07T10:41:27.000Z,24.45
2018-04-07T10:42:27.275Z,24.70
2018-04-07T10:43:26.807Z,25.51
2018-04-07T10:44:26.919Z,24.87
2018-04-07T10:45:26.712Z,25.22
2018-04-07T10:46:26.725Z,25.20
2018-04-07T10:47:26.702Z,25.83
2018-04-07T10:48:26.983Z,25.07
2018-04-07T10:49:26.659Z,25.31
2018-04-07T10:50:26.594Z,24.83
2018-04-07T10:51:26.611Z,25.61
2018-04-07T10:52:26.602Z,25.63
2018-04-07T10:53:26.578Z,25.56
2018-04-07T10:54:26.861Z,25.76
2018-04-07T10:55:26.485Z,25.19
2018-04-07T10:56:26.510Z,25.36
2018-04-07T10:57:26.687Z,25.81
2018-04-07T10:58:26.416Z,27.15
2018-04-07T10:59:26.442Z,27.52
2018-04-07T11:00:26.367Z,27.87
2018-04-07T11:01:26.712Z,28.02
2018-04-07T11:02:26.373Z,26.64
2018-04-07T11:03:26.317Z,25.90
2018-04-07T11:04:26.329Z,25.86
2018-04-07T11:05:26.256Z,26.24
2018-04-07T11:06:26.493Z,26.69
2018-04-07T11:07:26.271Z,27.58
2018-04-07T11:08:26.481Z,27.31
2018-04-07T11:09:26.211Z,27.13
2018-04-07T11:10:26.163Z,26.88
2018-04-07T11:11:26.185Z,27.08
2018-04-07T11:12:26.141Z,27.02
2018-04-07T11:13:26.077Z,27.16
2018-04-07T11:14:26.109Z,26.49
2018-04-07T11:15:26.326Z,27.09
2018-04-07T11:16:26.076Z,27.76
2018-04-07T11:17:26.051Z,27.48
2018-04-07T11:18:25.978Z,26.09
2018-04-07T11:19:26.154Z,25.09
2018-04-07T11:20:26.048Z,25.67
2018-04-07T11:21:26.158Z,26.06
2018-04-07T11:22:26.240Z,24.93
2018-04-07T11:23:25.867Z,25.36
2018-04-07T11:24:25.887Z,25.91
2018-04-07T11:25:25.807Z,26.09
2018-04-07T11:26:25.839Z,26.44
2018-04-07T11:27:25.812Z,26.87
2018-04-07T11:28:25.738Z,27.28
2018-04-07T11:29:26.071Z,28.72
2018-04-07T11:30:25.692Z,29.37
2018-04-07T11:31:25.721Z,28.67
2018-04-07T11:32:25.898Z,26.94
2018-04-07T11:33:25.627Z,26.53
2018-04-07T11:34:25.655Z,27.25
2018-04-07T11:35:25.664Z,27.83
2018-04-07T11:36:25.920Z,28.09
2018-04-07T11:37:25.593Z,26.86
2018-04-07T11:38:25.523Z,27.33
2018-04-07T11:39:25.544Z,27.90
2018-04-07T11:40:25.534Z,27.30
2018-04-07T11:41:25.519Z,27.83
2018-04-07T11:42:25.793Z,28.54
2018-04-07T11:43:25.422Z,28.64
2018-04-07T11:44:25.463Z,28.24
2018-04-07T11:45:25.577Z,28.51
2018-04-07T11:46:25.459Z,28.11
2018-04-07T11:47:25.382Z,28.46
2018-04-07T11:48:25.600Z,27.99
2018-04-07T11:49:25.328Z,27.58
2018-04-07T11:50:25.308Z,26.60
2018-04-07T11:51:25.290Z,26.83
2018-04-07T11:52:25.260Z,27.18
2018-04-07T11:53:25.191Z,28.60
2018-04-07T11:54:25.668Z,29.39
2018-04-07T11:55:25.201Z,27.90
2018-04-07T11:56:25.134Z,26.90
2018-04-07T11:57:25.162Z,27.53
2018-04-07T11:58:25.092Z,28.69
2018-04-07T11:59:25.118Z,29.37
2018-04-07T12:00:25.397Z,29.81
2018-04-07T12:01:25.076Z,28.69
2018-04-07T12:02:25.067Z,27.49
2018-04-07T12:03:24.984Z,27.65
2018-04-07T12:04:25.012Z,26.93
2018-04-07T12:05:25.187Z,27.87
2018-04-07T12:06:25.419Z,26.11
2018-04-07T12:07:24.943Z,25.81
2018-04-07T12:08:24.870Z,26.00
2018-04-07T12:09:25.106Z,26.72
2018-04-07T12:10:24.876Z,27.91
2018-04-07T12:11:24.824Z,27.61
2018-04-07T12:12:25.122Z,27.31
2018-04-07T12:13:24.749Z,28.60
2018-04-07T12:14:24.794Z,28.97
2018-04-07T12:15:24.752Z,29.33
2018-04-07T12:16:24.683Z,28.97
2018-04-07T12:17:24.706Z,28.77
2018-04-07T12:18:24.937Z,28.27
2018-04-07T12:19:24.864Z,27.99
2018-04-07T12:20:24.649Z,27.13
2018-04-07T12:21:24.579Z,27.13
2018-04-07T12:22:24.614Z,27.42
2018-04-07T12:23:24.531Z,27.86
2018-04-07T12:24:24.559Z,27.81
2018-04-07T12:25:24.858Z,27.77
2018-04-07T12:26:24.463Z,27.11
2018-04-07T12:27:24.492Z,27.48
2018-04-07T12:28:24.407Z,28.24
2018-04-07T12:29:24.596Z,29.78
2018-04-07T12:30:24.417Z,28.92
2018-04-07T12:31:24.341Z,28.76
2018-04-07T12:32:24.677Z,29.07
2018-04-07T12:33:24.300Z,28.70
2018-04-07T12:34:24.524Z,29.21
2018-04-07T12:35:24.452Z,29.52
2018-04-07T12:36:24.246Z,29.52
2018-04-07T12:37:24.258Z,28.91
2018-04-07T12:38:24.244Z,28.54
2018-04-07T12:39:24.514Z,28.82
2018-04-07T12:40:24.195Z,29.66
2018-04-07T12:41:24.132Z,29.81
2018-04-07T12:42:24.148Z,30.13
2018-04-07T12:43:24.126Z,29.79
2018-04-07T19:54:34.865Z,14.97
2018-04-07T19:55:34.527Z,14.93
2018-04-07T20:01:03.283Z,14.64
2018-04-07T20:02:03.609Z,14.64
2018-04-07T20:03:03.255Z,14.53
2018-04-07T20:04:03.172Z,14.57
2018-04-07T20:05:03.178Z,14.45
2018-04-07T20:06:03.087Z,14.46
2018-04-07T20:07:03.109Z,14.44
2018-04-07T20:08:03.526Z,14.45
2018-04-07T20:09:02.976Z,14.42
2018-04-07T20:10:02.988Z,14.45
2018-04-07T20:11:02.958Z,14.38
2018-04-07T20:12:02.913Z,14.41
2018-04-07T20:13:02.868Z,14.53
2018-04-07T20:14:03.079Z,14.52
2018-04-07T20:15:02.794Z,14.61
2018-04-07T20:16:02.958Z,14.49
2018-04-07T20:17:02.710Z,14.56
2018-04-07T20:18:02.674Z,14.54
2018-04-07T20:19:02.581Z,14.52
2018-04-07T20:20:02.892Z,14.53
2018-04-07T20:21:02.753Z,14.56
2018-04-07T20:22:02.512Z,14.54
2018-04-07T20:23:02.472Z,14.44
2018-04-07T20:24:02.377Z,14.39
2018-04-07T20:25:02.389Z,14.36
2018-04-07T20:26:02.652Z,14.34
2018-04-07T20:27:02.456Z,14.20
2018-04-07T20:28:02.474Z,14.31
2018-04-07T20:29:02.182Z,14.20